createdAt,value
2022-09-30T00:00:56.733Z,8.70
2022-09-30T00:03:24.347Z,8.80
2022-09-30T00:06:07.945Z,8.80
2022-09-30T00:08:38.538Z,8.70
2022-09-30T00:11:16.454Z,8.70
2022-09-30T00:13:44.469Z,8.70
2022-09-30T00:16:12.333Z,8.70
2022-09-30T00:18:39.718Z,9.10
2022-09-30T00:21:07.823Z,8.80
2022-09-30T00:23:37.847Z,8.70
2022-09-30T00:26:08.474Z,9.00
2022-09-30T00:28:35.212Z,9.20
2022-09-30T00:31:05.303Z,8.80
2022-09-30T00:33:32.475Z,8.60
2022-09-30T00:35:59.461Z,8.60
2022-09-30T00:38:26.217Z,8.80
2022-09-30T00:40:53.131Z,9.60
2022-09-30T00:43:38.041Z,8.50
2022-09-30T00:46:05.440Z,9.10
2022-09-30T00:48:38.933Z,8.90
2022-09-30T00:51:07.268Z,8.80
2022-09-30T00:53:42.611Z,8.90
2022-09-30T00:56:21.412Z,9.00
2022-09-30T00:58:55.710Z,8.80
2022-09-30T01:01:23.708Z,9.00
2022-09-30T01:04:03.335Z,9.10
2022-09-30T01:06:30.548Z,8.70
2022-09-30T01:08:58.676Z,8.80
2022-09-30T01:11:27.508Z,8.80
2022-09-30T01:14:01.727Z,9.20
2022-09-30T01:16:47.151Z,8.90
2022-09-30T01:19:41.274Z,8.90
2022-09-30T01:22:31.903Z,8.90
2022-09-30T01:25:34.489Z,8.80
2022-09-30T01:28:50.269Z,8.90
2022-09-30T01:31:32.055Z,8.90
2022-09-30T01:34:14.326Z,8.80
2022-09-30T01:37:09.493Z,8.80
2022-09-30T01:40:01.446Z,8.90
2022-09-30T01:42:49.911Z,8.90
2022-09-30T01:45:25.700Z,8.80
2022-09-30T01:48:05.179Z,8.90
2022-09-30T01:50:43.597Z,8.80
2022-09-30T01:53:30.587Z,8.70
2022-09-30T01:56:08.732Z,8.70
2022-09-30T01:58:57.751Z,8.70
2022-09-30T02:01:56.707Z,8.70
2022-09-30T02:04:28.477Z,8.70
2022-09-30T02:07:00.862Z,8.50
2022-09-30T02:09:49.318Z,8.50
2022-09-30T02:12:21.200Z,8.60
2022-09-30T02:14:55.679Z,8.70
2022-09-30T02:17:29.016Z,8.50
2022-09-30T02:20:10.656Z,8.70
2022-09-30T02:22:45.678Z,8.70
2022-09-30T02:25:31.964Z,8.70
2022-09-30T02:28:03.177Z,8.70
2022-09-30T02:30:30.398Z,8.60
2022-09-30T02:33:01.375Z,8.90
2022-09-30T02:35:36.209Z,9.20
2022-09-30T02:38:11.168Z,9.00
2022-09-30T02:40:48.067Z,8.60
2022-09-30T02:43:18.609Z,8.70
2022-09-30T02:46:09.848Z,8.60
2022-09-30T02:49:13.473Z,8.70
2022-09-30T02:51:52.161Z,8.70
2022-09-30T02:54:27.799Z,8.40
2022-09-30T02:57:00.747Z,8.40
2022-09-30T02:59:28.015Z,8.40
2022-09-30T03:01:54.954Z,8.40
2022-09-30T03:04:34.651Z,8.90
2022-09-30T03:07:01.549Z,8.50
2022-09-30T03:09:28.647Z,8.90
2022-09-30T03:12:03.316Z,8.50
2022-09-30T03:14:41.184Z,8.50
2022-09-30T03:17:39.044Z,8.40
2022-09-30T03:20:10.677Z,8.40
2022-09-30T03:23:03.134Z,8.40
2022-09-30T03:25:48.435Z,8.70
2022-09-30T03:28:30.311Z,8.40
2022-09-30T03:31:05.933Z,8.50
2022-09-30T03:33:42.220Z,8.60
2022-09-30T03:36:27.564Z,8.70
2022-09-30T03:39:39.328Z,8.70
2022-09-30T03:42:17.322Z,8.60
2022-09-30T03:45:11.723Z,8.50
2022-09-30T03:47:46.190Z,8.50
2022-09-30T03:50:15.286Z,8.70
2022-09-30T03:52:42.524Z,8.80
2022-09-30T03:55:11.637Z,8.30
2022-09-30T03:57:38.586Z,8.30
2022-09-30T04:00:07.012Z,8.10
2022-09-30T04:02:33.811Z,8.20
2022-09-30T04:05:00.572Z,8.20
2022-09-30T04:07:27.291Z,8.00
2022-09-30T04:09:53.961Z,8.00
2022-09-30T04:12:21.277Z,8.00
2022-09-30T04:14:47.902Z,8.10
2022-09-30T04:17:14.696Z,8.10
2022-09-30T04:19:41.492Z,8.20
2022-09-30T04:22:09.135Z,7.90
2022-09-30T04:24:36.590Z,7.90
2022-09-30T04:27:03.890Z,8.10
2022-09-30T04:29:30.904Z,8.10
2022-09-30T04:31:57.636Z,8.00
2022-09-30T04:34:24.369Z,7.90
2022-09-30T04:36:51.054Z,7.90
2022-09-30T04:39:17.896Z,7.80
2022-09-30T04:41:44.647Z,8.10
2022-09-30T04:44:11.290Z,8.10
2022-09-30T04:46:38.010Z,8.10
2022-09-30T04:49:08.778Z,8.30
2022-09-30T04:51:38.577Z,8.20
2022-09-30T04:54:05.535Z,8.30
2022-09-30T04:56:32.274Z,8.10
2022-09-30T04:58:58.992Z,7.90
2022-09-30T05:01:25.682Z,8.00
2022-09-30T05:03:53.711Z,8.00
2022-09-30T05:06:20.886Z,8.10
2022-09-30T05:08:48.134Z,8.10
2022-09-30T05:11:19.966Z,8.00
2022-09-30T05:13:47.725Z,8.40
2022-09-30T05:16:15.298Z,8.00
2022-09-30T05:18:45.833Z,8.00
2022-09-30T05:21:14.329Z,8.10
2022-09-30T05:23:41.279Z,7.80
2022-09-30T05:26:12.267Z,7.70
2022-09-30T05:28:40.835Z,7.60
2022-09-30T05:31:07.931Z,7.60
2022-09-30T05:33:35.970Z,7.80
2022-09-30T05:36:06.841Z,7.80
2022-09-30T05:38:34.224Z,7.90
2022-09-30T05:41:12.391Z,7.80
2022-09-30T05:43:40.606Z,7.80
2022-09-30T05:46:08.047Z,8.10
2022-09-30T05:48:34.844Z,8.00
2022-09-30T05:51:01.750Z,7.80
2022-09-30T05:53:29.556Z,7.50
2022-09-30T05:55:56.297Z,7.60
2022-09-30T05:58:23.246Z,7.80
2022-09-30T06:00:50.565Z,7.80
2022-09-30T06:03:17.787Z,8.00
2022-09-30T06:05:45.765Z,7.60
2022-09-30T06:08:13.633Z,7.80
2022-09-30T06:10:42.008Z,7.40
2022-09-30T06:13:09.644Z,7.40
2022-09-30T06:15:38.923Z,7.30
2022-09-30T06:18:06.259Z,7.40
2022-09-30T06:20:33.145Z,7.40
2022-09-30T06:23:03.306Z,7.20
2022-09-30T06:25:31.266Z,7.50
2022-09-30T06:27:58.426Z,7.50
2022-09-30T06:30:25.639Z,7.60
2022-09-30T06:32:54.131Z,8.30
2022-09-30T06:35:24.048Z,7.80
2022-09-30T06:37:51.725Z,7.70
2022-09-30T06:40:21.275Z,7.80
2022-09-30T06:42:49.415Z,7.80
2022-09-30T06:45:30.637Z,8.20
2022-09-30T06:48:04.335Z,8.00
2022-09-30T06:50:32.773Z,7.90
2022-09-30T06:53:07.765Z,8.80
2022-09-30T06:55:39.262Z,7.90
2022-09-30T06:58:14.443Z,7.80
2022-09-30T07:00:41.235Z,8.00
2022-09-30T07:03:18.186Z,8.10
2022-09-30T07:05:44.859Z,8.10
2022-09-30T07:08:11.497Z,8.10
2022-09-30T07:10:38.233Z,8.00
2022-09-30T07:13:05.262Z,8.10
2022-09-30T07:15:32.057Z,8.10
2022-09-30T07:17:58.706Z,8.10
2022-09-30T07:20:25.728Z,8.30
2022-09-30T07:22:52.506Z,8.10
2022-09-30T07:25:19.733Z,8.10
2022-09-30T07:27:46.770Z,8.30
2022-09-30T07:30:22.780Z,8.10
2022-09-30T07:32:53.527Z,8.70
2022-09-30T07:35:20.866Z,8.60
2022-09-30T07:37:47.674Z,8.20
2022-09-30T07:40:15.182Z,8.50
2022-09-30T07:42:46.032Z,8.20
2022-09-30T07:45:17.003Z,8.20
2022-09-30T07:47:43.845Z,9.00
2022-09-30T07:50:13.373Z,8.20
2022-09-30T07:52:40.113Z,8.20
2022-09-30T07:55:07.135Z,8.40
2022-09-30T07:57:33.837Z,8.30
2022-09-30T08:00:12.038Z,9.80
2022-09-30T08:02:47.361Z,8.30
2022-09-30T08:05:14.159Z,9.00
2022-09-30T08:07:40.889Z,9.50
2022-09-30T08:10:08.143Z,8.30
2022-09-30T08:12:36.842Z,8.30
2022-09-30T08:15:03.601Z,8.40
2022-09-30T08:17:30.346Z,8.40
2022-09-30T08:19:57.074Z,8.30
2022-09-30T08:22:23.889Z,8.30
2022-09-30T08:24:50.543Z,9.60
2022-09-30T08:27:17.285Z,8.30
2022-09-30T08:30:04.257Z,9.80
2022-09-30T08:32:32.560Z,8.40
2022-09-30T08:34:59.270Z,8.50
2022-09-30T08:37:25.983Z,8.50
2022-09-30T08:39:52.679Z,8.70
2022-09-30T08:42:48.911Z,8.50
2022-09-30T08:45:43.901Z,8.50
2022-09-30T08:48:22.673Z,8.60
2022-09-30T08:51:13.275Z,8.60
2022-09-30T08:53:46.507Z,8.70
2022-09-30T08:56:27.289Z,8.80
2022-09-30T08:59:21.106Z,8.70
2022-09-30T09:01:50.852Z,8.90
2022-09-30T09:04:18.475Z,9.30
2022-09-30T09:07:10.459Z,9.80
2022-09-30T09:09:46.241Z,8.90
2022-09-30T09:13:00.123Z,8.90
2022-09-30T09:15:48.792Z,9.10
2022-09-30T09:18:23.987Z,9.10
2022-09-30T09:20:56.067Z,9.10
2022-09-30T09:23:23.858Z,9.00
2022-09-30T09:25:54.189Z,8.90
2022-09-30T09:28:50.364Z,8.80
2022-09-30T09:31:20.916Z,8.90
2022-09-30T09:33:47.654Z,9.00
2022-09-30T09:36:38.051Z,9.10
2022-09-30T09:39:25.982Z,9.20
2022-09-30T09:42:30.153Z,9.20
2022-09-30T09:45:02.136Z,9.10
2022-09-30T09:47:29.028Z,9.10
2022-09-30T09:49:59.913Z,9.10
2022-09-30T09:52:42.736Z,9.20
2022-09-30T09:55:10.403Z,9.40
2022-09-30T09:57:40.179Z,9.60
2022-09-30T10:00:31.201Z,9.40
2022-09-30T10:03:19.287Z,9.50
2022-09-30T10:05:59.827Z,9.50
2022-09-30T10:08:26.602Z,9.60
2022-09-30T10:11:05.317Z,9.70
2022-09-30T10:13:38.282Z,9.80
2022-09-30T10:16:05.448Z,9.80
2022-09-30T10:18:36.648Z,9.70
2022-09-30T10:21:19.278Z,9.90
2022-09-30T10:23:45.980Z,9.70
2022-09-30T10:26:15.710Z,9.80
2022-09-30T10:28:52.490Z,9.60
2022-09-30T10:31:24.978Z,9.70
2022-09-30T10:34:10.134Z,9.60
2022-09-30T10:36:39.316Z,9.60
2022-09-30T10:39:23.997Z,9.60
2022-09-30T10:42:01.033Z,9.50
2022-09-30T10:44:28.975Z,9.50
2022-09-30T10:47:02.562Z,10.00
2022-09-30T10:49:29.368Z,9.80
2022-09-30T10:51:58.084Z,9.90
2022-09-30T10:54:54.725Z,9.90
2022-09-30T10:57:32.053Z,10.10
2022-09-30T11:00:17.269Z,10.30
2022-09-30T11:02:55.258Z,10.30
2022-09-30T11:05:24.387Z,10.20
2022-09-30T11:08:25.209Z,10.20
2022-09-30T11:11:08.763Z,10.40
2022-09-30T11:13:49.189Z,10.50
2022-09-30T11:16:21.218Z,10.40
2022-09-30T11:18:55.621Z,10.40
2022-09-30T11:21:29.890Z,10.40
2022-09-30T11:24:15.566Z,10.80
2022-09-30T11:26:54.697Z,10.60
2022-09-30T11:29:52.676Z,10.60
2022-09-30T11:32:24.905Z,10.70
2022-09-30T11:34:54.340Z,10.80
2022-09-30T11:37:58.494Z,10.90
2022-09-30T11:40:48.966Z,10.90
2022-09-30T11:43:33.101Z,11.00
2022-09-30T11:46:18.504Z,10.90
2022-09-30T11:48:49.183Z,10.80
2022-09-30T11:51:38.421Z,11.00
2022-09-30T11:54:08.092Z,11.10
2022-09-30T11:56:45.733Z,11.10
2022-09-30T11:59:21.616Z,11.40
2022-09-30T12:01:52.414Z,10.80
2022-09-30T12:04:26.277Z,10.70
2022-09-30T12:06:58.306Z,10.70
2022-09-30T12:09:26.327Z,10.90
2022-09-30T12:12:16.230Z,11.20
2022-09-30T12:14:57.759Z,11.20
2022-09-30T12:17:38.911Z,11.30
2022-09-30T12:20:16.943Z,11.30
2022-09-30T12:22:46.913Z,11.40
2022-09-30T12:25:28.252Z,11.50
2022-09-30T12:28:27.803Z,11.50
2022-09-30T12:31:16.340Z,11.50
2022-09-30T12:33:55.178Z,11.60
2022-09-30T12:36:27.868Z,11.60
2022-09-30T12:39:16.904Z,11.40
2022-09-30T12:42:14.079Z,11.40
2022-09-30T12:44:52.565Z,12.70
2022-09-30T12:47:34.537Z,11.40
2022-09-30T12:50:07.028Z,11.50
2022-09-30T12:52:35.819Z,11.70
2022-09-30T12:55:19.978Z,12.40
2022-09-30T12:57:48.696Z,12.30
2022-09-30T13:00:21.138Z,12.40
2022-09-30T13:02:55.206Z,12.40
2022-09-30T13:05:44.710Z,12.40
2022-09-30T13:08:14.115Z,12.20
2022-09-30T13:10:40.767Z,12.10
2022-09-30T13:13:10.429Z,12.20
2022-09-30T13:15:37.236Z,11.80
2022-09-30T13:18:26.785Z,11.90
2022-09-30T13:20:57.384Z,11.90
2022-09-30T13:23:53.130Z,11.60
2022-09-30T13:26:26.167Z,11.70
2022-09-30T13:29:00.325Z,12.00
2022-09-30T13:31:32.198Z,11.80
2022-09-30T13:34:02.052Z,11.70
2022-09-30T13:36:58.202Z,11.90
2022-09-30T13:39:43.799Z,11.80
2022-09-30T13:42:16.379Z,11.80
2022-09-30T13:45:08.356Z,11.90
2022-09-30T13:47:50.673Z,11.80
2022-09-30T13:50:26.292Z,11.60
2022-09-30T13:52:59.212Z,11.60
2022-09-30T13:55:32.280Z,11.90
2022-09-30T13:58:34.887Z,12.00
2022-09-30T14:01:06.998Z,12.20
2022-09-30T14:03:40.028Z,12.20
2022-09-30T14:06:20.241Z,12.20
2022-09-30T14:09:08.005Z,12.20
2022-09-30T14:11:40.670Z,12.10
2022-09-30T14:14:34.724Z,12.00
2022-09-30T14:17:20.347Z,11.90
2022-09-30T14:20:18.646Z,11.70
2022-09-30T14:22:45.508Z,11.60
2022-09-30T14:25:18.171Z,11.90
2022-09-30T14:28:03.755Z,11.90
2022-09-30T14:30:39.043Z,12.00
2022-09-30T14:33:36.216Z,12.10
2022-09-30T14:36:06.687Z,11.90
2022-09-30T14:38:36.370Z,12.00
2022-09-30T14:41:14.122Z,12.60
2022-09-30T14:43:44.018Z,12.50
2022-09-30T14:46:41.272Z,12.80
2022-09-30T14:49:13.495Z,12.70
2022-09-30T14:51:48.631Z,12.70
2022-09-30T14:54:21.751Z,12.60
2022-09-30T14:56:49.735Z,12.50
2022-09-30T14:59:31.195Z,12.80
2022-09-30T15:02:00.913Z,12.30
2022-09-30T15:04:41.770Z,12.30
2022-09-30T15:07:12.494Z,12.40
2022-09-30T15:09:43.500Z,12.60
2022-09-30T15:12:19.814Z,13.00
2022-09-30T15:14:52.061Z,12.50
2022-09-30T15:17:27.207Z,12.60
2022-09-30T15:19:55.828Z,12.90
2022-09-30T15:22:26.277Z,13.10
2022-09-30T15:24:53.854Z,13.10
2022-09-30T15:27:30.739Z,12.80
2022-09-30T15:30:00.550Z,12.70
2022-09-30T15:32:34.944Z,12.90
2022-09-30T15:35:11.944Z,12.70
2022-09-30T15:37:38.927Z,12.80
2022-09-30T15:40:33.553Z,13.00
2022-09-30T15:43:06.314Z,12.40
2022-09-30T15:45:39.463Z,12.00
2022-09-30T15:48:25.850Z,12.30
2022-09-30T15:50:58.328Z,12.00
2022-09-30T15:53:31.257Z,12.00
2022-09-30T15:55:59.815Z,11.80
2022-09-30T15:58:29.650Z,11.90
2022-09-30T16:01:21.826Z,11.70
2022-09-30T16:03:59.025Z,11.60
2022-09-30T16:06:36.615Z,11.50
2022-09-30T16:09:08.617Z,11.40
2022-09-30T16:11:41.235Z,11.60
2022-09-30T16:14:27.466Z,11.60
2022-09-30T16:16:58.278Z,11.60
2022-09-30T16:19:26.940Z,11.50
2022-09-30T16:21:55.061Z,11.50
2022-09-30T16:24:24.687Z,11.50
2022-09-30T16:27:15.620Z,11.40
2022-09-30T16:29:42.321Z,11.40
2022-09-30T16:32:10.019Z,11.20
2022-09-30T16:34:37.945Z,11.20
2022-09-30T16:37:14.820Z,11.20
2022-09-30T16:39:41.613Z,11.10
2022-09-30T16:42:13.849Z,11.30
2022-09-30T16:44:42.202Z,11.60
2022-09-30T16:47:13.026Z,11.00
2022-09-30T16:49:40.328Z,10.70
2022-09-30T16:52:07.042Z,10.80
2022-09-30T16:54:33.977Z,11.10
2022-09-30T16:57:01.078Z,10.60
2022-09-30T16:59:27.972Z,11.10
2022-09-30T17:01:54.702Z,10.70
2022-09-30T17:04:21.449Z,10.70
2022-09-30T17:06:48.437Z,11.10
2022-09-30T17:09:15.253Z,10.90
2022-09-30T17:11:42.043Z,10.90
2022-09-30T17:14:08.829Z,10.80
2022-09-30T17:16:36.448Z,10.70
2022-09-30T17:19:03.725Z,10.20
2022-09-30T17:21:30.599Z,10.20
2022-09-30T17:23:58.860Z,10.50
2022-09-30T17:26:25.624Z,9.90
2022-09-30T17:28:53.526Z,10.10
2022-09-30T17:31:22.151Z,10.70
2022-09-30T17:33:48.953Z,10.00
2022-09-30T17:36:15.848Z,10.10
2022-09-30T17:38:42.797Z,9.90
2022-09-30T17:41:31.347Z,10.10
2022-09-30T17:44:00.976Z,10.50
2022-09-30T17:46:28.373Z,9.80
2022-09-30T17:48:56.972Z,9.70
2022-09-30T17:51:23.878Z,9.90
2022-09-30T17:53:50.594Z,9.30
2022-09-30T17:56:19.989Z,10.10
2022-09-30T17:58:48.871Z,9.60
2022-09-30T18:01:18.101Z,9.90
2022-09-30T18:03:45.974Z,10.20
2022-09-30T18:06:16.494Z,10.00
2022-09-30T18:08:43.592Z,9.00
2022-09-30T18:11:11.504Z,9.20
2022-09-30T18:13:38.218Z,8.90
2022-09-30T18:16:08.299Z,9.30
2022-09-30T18:18:35.902Z,9.00
2022-09-30T18:21:02.743Z,8.70
2022-09-30T18:23:29.523Z,9.20
2022-09-30T18:25:57.924Z,8.80
2022-09-30T18:28:25.015Z,8.70
2022-09-30T18:30:51.823Z,8.80
2022-09-30T18:33:21.689Z,8.80
2022-09-30T18:35:49.057Z,9.80
2022-09-30T18:38:15.757Z,9.10
2022-09-30T18:40:43.667Z,8.90
2022-09-30T18:43:13.911Z,9.00
2022-09-30T18:45:43.301Z,8.80
2022-09-30T18:48:10.756Z,8.90
2022-09-30T18:50:37.685Z,8.80
2022-09-30T18:53:09.583Z,8.90
2022-09-30T18:55:38.423Z,8.40
2022-09-30T18:58:05.524Z,8.60
2022-09-30T19:00:32.567Z,8.20
2022-09-30T19:02:59.343Z,8.20
2022-09-30T19:05:26.443Z,8.40
2022-09-30T19:07:54.235Z,8.30
2022-09-30T19:10:21.575Z,8.50
2022-09-30T19:12:49.719Z,8.90
2022-09-30T19:15:16.655Z,8.60
2022-09-30T19:17:44.742Z,8.60
2022-09-30T19:20:12.152Z,8.40
2022-09-30T19:22:38.835Z,8.30
2022-09-30T19:25:07.765Z,8.70
2022-09-30T19:27:37.673Z,8.50
2022-09-30T19:30:06.449Z,8.60
2022-09-30T19:32:35.769Z,8.20
2022-09-30T19:35:06.621Z,8.30
2022-09-30T19:37:34.495Z,8.70
2022-09-30T19:40:14.571Z,9.40
2022-09-30T19:42:47.440Z,8.50
2022-09-30T19:45:16.473Z,8.40
2022-09-30T19:47:43.423Z,8.50
2022-09-30T19:50:10.293Z,8.40
2022-09-30T19:52:44.837Z,8.30
2022-09-30T19:55:16.920Z,7.90
2022-09-30T19:57:43.893Z,8.00
2022-09-30T20:00:12.985Z,7.90
2022-09-30T20:02:39.923Z,8.20
2022-09-30T20:05:07.606Z,8.20
2022-09-30T20:07:35.104Z,8.20
2022-09-30T20:10:02.090Z,8.10
2022-09-30T20:12:29.253Z,8.00
2022-09-30T20:15:15.317Z,8.10
2022-09-30T20:17:42.057Z,7.70
2022-09-30T20:20:28.053Z,7.70
2022-09-30T20:22:54.783Z,7.70
2022-09-30T20:25:21.588Z,7.70
2022-09-30T20:27:52.279Z,7.50
2022-09-30T20:30:20.117Z,7.40
2022-09-30T20:32:47.262Z,7.30
2022-09-30T20:35:14.158Z,7.50
2022-09-30T20:37:42.551Z,7.50
2022-09-30T20:40:09.734Z,7.50
2022-09-30T20:42:38.670Z,7.50
2022-09-30T20:45:10.085Z,7.20
2022-09-30T20:47:38.337Z,7.20
2022-09-30T20:50:06.228Z,6.90
2022-09-30T20:52:33.315Z,6.90
2022-09-30T20:55:00.404Z,6.90
2022-09-30T20:57:31.297Z,7.00
2022-09-30T20:59:59.949Z,7.10
2022-09-30T21:02:28.078Z,7.40
2022-09-30T21:04:57.681Z,7.20
2022-09-30T21:07:25.480Z,6.90
2022-09-30T21:09:52.503Z,6.90
2022-09-30T21:12:19.356Z,7.00
2022-09-30T21:14:46.091Z,6.90
2022-09-30T21:17:12.777Z,7.00
2022-09-30T21:19:40.093Z,7.10
2022-09-30T21:22:07.332Z,7.20
2022-09-30T21:24:34.191Z,7.40
2022-09-30T21:27:01.729Z,7.40
2022-09-30T21:29:30.605Z,7.50
2022-09-30T21:31:57.531Z,7.40
2022-09-30T21:34:24.735Z,7.50
2022-09-30T21:36:51.800Z,7.60
2022-09-30T21:39:18.582Z,7.80
2022-09-30T21:41:45.716Z,7.70
2022-09-30T21:44:12.421Z,7.70
2022-09-30T21:46:39.146Z,7.60
2022-09-30T21:49:18.251Z,7.70
2022-09-30T21:51:45.054Z,7.60
2022-09-30T21:54:13.890Z,7.40
2022-09-30T21:56:42.909Z,7.50
2022-09-30T21:59:10.561Z,7.30
2022-09-30T22:01:37.780Z,7.50
2022-09-30T22:04:05.561Z,7.50
2022-09-30T22:06:32.772Z,8.00
2022-09-30T22:09:02.730Z,7.40
2022-09-30T22:11:30.942Z,7.10
2022-09-30T22:13:59.563Z,7.20
2022-09-30T22:16:30.815Z,7.10
2022-09-30T22:19:00.537Z,7.10
2022-09-30T22:21:31.789Z,7.20
2022-09-30T22:24:00.238Z,7.30
2022-09-30T22:26:27.394Z,7.20
2022-09-30T22:29:00.863Z,6.90
2022-09-30T22:31:30.679Z,6.90
2022-09-30T22:34:22.149Z,6.90
2022-09-30T22:37:07.435Z,7.00
2022-09-30T22:39:34.990Z,7.20
2022-09-30T22:42:02.137Z,7.20
2022-09-30T22:44:38.048Z,7.10
2022-09-30T22:47:05.623Z,7.20
2022-09-30T22:49:32.999Z,7.00
2022-09-30T22:52:00.824Z,7.20
2022-09-30T22:54:29.125Z,7.30
2022-09-30T22:56:58.349Z,7.40
2022-09-30T22:59:25.932Z,7.30
2022-09-30T23:01:53.229Z,7.70
2022-09-30T23:04:20.386Z,7.80
2022-09-30T23:06:52.546Z,7.70
2022-09-30T23:09:23.029Z,7.80
2022-09-30T23:11:53.441Z,7.90
2022-09-30T23:14:21.535Z,7.70
2022-09-30T23:16:48.562Z,7.60
2022-09-30T23:19:15.306Z,7.60
2022-09-30T23:21:42.204Z,7.80
2022-09-30T23:24:09.175Z,7.70
2022-09-30T23:26:37.087Z,7.80
2022-09-30T23:29:10.463Z,7.80
2022-09-30T23:31:37.736Z,8.10
2022-09-30T23:34:05.047Z,8.10
2022-09-30T23:36:35.176Z,8.10
2022-09-30T23:39:21.963Z,8.00
2022-09-30T23:41:49.710Z,8.10
2022-09-30T23:44:20.182Z,8.10
2022-09-30T23:47:06.360Z,7.60
2022-09-30T23:49:35.690Z,8.40
2022-09-30T23:52:11.834Z,8.00
2022-09-30T23:54:43.342Z,8.20
2022-09-30T23:57:10.743Z,8.20
2022-09-30T23:59:38.550Z,8.20
